createdAt,value
2023-02-09T00:01:13.997Z,32.15
2023-02-09T00:03:42.478Z,32.13
2023-02-09T00:06:11.099Z,32.25
2023-02-09T00:08:39.306Z,31.89
2023-02-09T00:11:08.585Z,32.54
2023-02-09T00:13:37.280Z,31.98
2023-02-09T00:16:05.793Z,32.53
2023-02-09T00:18:34.351Z,32.19
2023-02-09T00:21:03.405Z,32.70
2023-02-09T00:23:32.732Z,32.61
2023-02-09T00:26:00.980Z,32.41
2023-02-09T00:28:29.312Z,32.75
2023-02-09T00:30:59.059Z,32.06
2023-02-09T00:33:27.440Z,32.07
2023-02-09T00:35:58.288Z,32.82
2023-02-09T00:38:26.497Z,32.14
2023-02-09T00:40:54.613Z,32.80
2023-02-09T00:43:22.790Z,32.11
2023-02-09T00:45:50.985Z,32.85
2023-02-09T00:48:20.773Z,32.38
2023-02-09T00:50:49.080Z,32.75
2023-02-09T00:53:17.264Z,32.16
2023-02-09T00:55:45.486Z,32.93
2023-02-09T00:58:13.738Z,32.45
2023-02-09T01:00:42.431Z,32.64
2023-02-09T01:03:10.721Z,32.49
2023-02-09T01:05:41.557Z,32.79
2023-02-09T01:08:10.116Z,32.89
2023-02-09T01:10:39.216Z,32.82
2023-02-09T01:13:07.925Z,32.79
2023-02-09T01:15:36.136Z,32.81
2023-02-09T01:18:04.362Z,32.39
2023-02-09T01:20:32.561Z,32.24
2023-02-09T01:23:02.720Z,32.92
2023-02-09T01:25:31.811Z,32.79
2023-02-09T01:28:00.037Z,32.33
2023-02-09T01:30:28.517Z,32.67
2023-02-09T01:32:56.645Z,32.82
2023-02-09T01:35:24.894Z,32.45
2023-02-09T01:37:53.057Z,32.18
2023-02-09T01:40:22.730Z,32.29
2023-02-09T01:42:50.851Z,32.11
2023-02-09T01:45:26.143Z,32.87
2023-02-09T01:47:57.706Z,32.57
2023-02-09T01:50:26.329Z,32.56
2023-02-09T01:52:54.563Z,32.75
2023-02-09T01:55:25.582Z,32.80
2023-02-09T01:57:55.408Z,32.16
2023-02-09T02:00:23.924Z,31.98
2023-02-09T02:02:54.355Z,32.84
2023-02-09T02:05:22.773Z,32.67
2023-02-09T02:07:53.292Z,32.64
2023-02-09T02:10:21.534Z,32.19
2023-02-09T02:12:51.091Z,32.00
2023-02-09T02:15:19.507Z,32.72
2023-02-09T02:17:54.336Z,32.15
2023-02-09T02:20:40.406Z,32.56
2023-02-09T02:23:11.668Z,32.72
2023-02-09T02:26:18.648Z,32.50
2023-02-09T02:28:56.370Z,32.53
2023-02-09T02:32:00.383Z,31.99
2023-02-09T02:34:32.032Z,32.46
2023-02-09T02:37:02.864Z,32.56
2023-02-09T02:39:35.049Z,32.43
2023-02-09T02:42:21.439Z,32.66
2023-02-09T02:44:53.448Z,32.30
2023-02-09T02:47:23.116Z,32.04
2023-02-09T02:49:52.778Z,32.77
2023-02-09T02:52:20.944Z,32.10
2023-02-09T02:54:50.733Z,32.28
2023-02-09T02:57:20.108Z,32.08
2023-02-09T02:59:49.912Z,32.34
2023-02-09T03:02:20.184Z,32.22
2023-02-09T03:04:50.113Z,32.74
2023-02-09T03:07:18.601Z,32.16
2023-02-09T03:09:50.861Z,32.34
2023-02-09T03:12:24.519Z,32.74
2023-02-09T03:15:03.968Z,32.70
2023-02-09T03:17:42.659Z,32.55
2023-02-09T03:20:15.376Z,32.54
2023-02-09T03:22:44.512Z,32.32
2023-02-09T03:25:15.386Z,32.23
2023-02-09T03:27:46.365Z,32.51
2023-02-09T03:30:15.778Z,32.60
2023-02-09T03:32:44.495Z,32.01
2023-02-09T03:35:15.276Z,32.41
2023-02-09T03:37:43.469Z,32.04
2023-02-09T03:40:12.178Z,32.35
2023-02-09T03:42:40.404Z,32.01
2023-02-09T03:45:09.189Z,32.26
2023-02-09T03:47:37.419Z,32.04
2023-02-09T03:50:06.895Z,32.33
2023-02-09T03:52:36.529Z,31.98
2023-02-09T03:55:05.407Z,32.52
2023-02-09T03:57:33.657Z,31.97
2023-02-09T04:00:02.229Z,32.46
2023-02-09T04:02:40.068Z,32.38
2023-02-09T04:05:08.745Z,32.03
2023-02-09T04:07:38.521Z,32.37
2023-02-09T04:10:07.757Z,32.13
2023-02-09T04:12:35.876Z,32.45
2023-02-09T04:15:04.037Z,32.71
2023-02-09T04:17:32.271Z,31.92
2023-02-09T04:20:00.419Z,31.78
2023-02-09T04:22:28.586Z,32.30
2023-02-09T04:24:58.365Z,32.24
2023-02-09T04:27:27.249Z,32.21
2023-02-09T04:29:55.668Z,32.41
2023-02-09T04:32:24.001Z,31.97
2023-02-09T04:34:52.267Z,32.48
2023-02-09T04:37:20.424Z,32.44
2023-02-09T04:39:48.597Z,32.78
2023-02-09T04:42:18.301Z,32.13
2023-02-09T04:44:46.535Z,32.76
2023-02-09T04:47:14.762Z,32.63
2023-02-09T04:49:44.626Z,32.04
2023-02-09T04:52:12.866Z,32.81
2023-02-09T04:54:41.108Z,32.78
2023-02-09T04:57:26.339Z,32.66
2023-02-09T04:59:56.005Z,32.08
2023-02-09T05:02:24.257Z,32.26
2023-02-09T05:04:52.432Z,32.12
2023-02-09T05:07:20.626Z,31.44
2023-02-09T05:09:48.799Z,31.83
2023-02-09T05:12:17.005Z,32.04
2023-02-09T05:14:45.066Z,31.60
2023-02-09T05:17:14.804Z,32.28
2023-02-09T05:19:42.985Z,32.13
2023-02-09T05:22:11.438Z,32.12
2023-02-09T05:24:39.576Z,32.19
2023-02-09T05:27:07.797Z,31.25
2023-02-09T05:29:35.969Z,31.83
2023-02-09T05:32:04.265Z,31.20
2023-02-09T05:34:33.969Z,31.59
2023-02-09T05:37:02.225Z,31.85
2023-02-09T05:39:30.376Z,31.01
2023-02-09T05:42:16.443Z,31.03
2023-02-09T05:44:44.948Z,31.54
2023-02-09T05:47:13.720Z,31.28
2023-02-09T05:49:43.364Z,31.72
2023-02-09T05:52:29.268Z,31.25
2023-02-09T05:54:57.556Z,31.18
2023-02-09T05:57:25.849Z,31.09
2023-02-09T05:59:54.061Z,30.34
2023-02-09T06:02:22.214Z,30.94
2023-02-09T06:04:51.952Z,30.80
2023-02-09T06:07:20.229Z,30.34
2023-02-09T06:09:48.413Z,30.94
2023-02-09T06:12:16.588Z,30.05
2023-02-09T06:14:44.833Z,30.70
2023-02-09T06:17:13.022Z,30.24
2023-02-09T06:19:41.294Z,30.74
2023-02-09T06:22:10.832Z,30.81
2023-02-09T06:24:38.970Z,30.55
2023-02-09T06:27:07.313Z,31.11
2023-02-09T06:29:35.496Z,30.65
2023-02-09T06:32:04.012Z,30.76
2023-02-09T06:34:32.306Z,30.99
2023-02-09T06:37:00.532Z,31.00
2023-02-09T06:39:30.702Z,31.06
2023-02-09T06:41:58.945Z,30.33
2023-02-09T06:44:27.464Z,30.76
2023-02-09T06:46:55.753Z,30.40
2023-02-09T06:49:25.421Z,30.96
2023-02-09T06:51:54.274Z,30.33
2023-02-09T06:54:22.873Z,30.65
2023-02-09T06:56:52.644Z,31.20
2023-02-09T06:59:21.052Z,31.24
2023-02-09T07:01:52.780Z,30.98
2023-02-09T07:04:22.768Z,30.87
2023-02-09T07:06:50.904Z,30.39
2023-02-09T07:09:19.147Z,31.18
2023-02-09T07:11:47.431Z,30.47
2023-02-09T07:14:17.234Z,30.44
2023-02-09T07:16:45.373Z,31.12
2023-02-09T07:19:13.555Z,30.41
2023-02-09T07:21:41.928Z,30.88
2023-02-09T07:24:10.157Z,30.10
2023-02-09T07:26:38.406Z,29.83
2023-02-09T07:29:06.704Z,29.47
2023-02-09T07:31:36.682Z,30.03
2023-02-09T07:34:05.071Z,29.71
2023-02-09T07:36:33.254Z,30.17
2023-02-09T07:39:01.665Z,29.48
2023-02-09T07:41:30.064Z,29.97
2023-02-09T07:43:58.880Z,30.16
2023-02-09T07:46:27.172Z,29.95
2023-02-09T07:48:59.468Z,30.06
2023-02-09T07:51:29.906Z,30.20
2023-02-09T07:53:58.735Z,29.42
2023-02-09T07:56:28.694Z,29.78
2023-02-09T07:58:57.215Z,29.41
2023-02-09T08:01:25.917Z,29.58
2023-02-09T08:03:54.204Z,30.03
2023-02-09T08:06:36.271Z,30.05
2023-02-09T08:09:09.340Z,29.94
2023-02-09T08:11:40.431Z,30.00
2023-02-09T08:14:12.125Z,29.32
2023-02-09T08:16:40.399Z,29.42
2023-02-09T08:19:12.018Z,29.51
2023-02-09T08:21:43.071Z,29.81
2023-02-09T08:24:11.300Z,29.85
2023-02-09T08:26:39.537Z,29.83
2023-02-09T08:29:07.933Z,29.21
2023-02-09T08:31:36.219Z,29.19
2023-02-09T08:34:04.960Z,29.61
2023-02-09T08:36:34.472Z,29.47
2023-02-09T08:39:05.418Z,29.29
2023-02-09T08:41:34.608Z,29.93
2023-02-09T08:44:02.761Z,29.17
2023-02-09T08:46:31.188Z,29.41
2023-02-09T08:48:59.462Z,29.80
2023-02-09T08:51:27.688Z,29.79
2023-02-09T08:53:55.840Z,29.85
2023-02-09T08:56:25.733Z,29.20
2023-02-09T08:58:54.000Z,29.55
2023-02-09T09:01:22.386Z,29.20
2023-02-09T09:03:50.676Z,29.71
2023-02-09T09:06:19.056Z,29.17
2023-02-09T09:08:47.250Z,29.43
2023-02-09T09:11:15.345Z,29.36
2023-02-09T09:13:45.049Z,29.57
2023-02-09T09:16:16.687Z,29.76
2023-02-09T09:18:45.679Z,29.42
2023-02-09T09:21:14.309Z,29.08
2023-02-09T09:23:42.637Z,29.04
2023-02-09T09:26:10.802Z,29.79
2023-02-09T09:28:39.345Z,29.78
2023-02-09T09:31:12.797Z,29.83
2023-02-09T09:33:41.856Z,29.84
2023-02-09T09:36:10.550Z,29.93
2023-02-09T09:38:39.328Z,29.32
2023-02-09T09:41:08.425Z,29.52
2023-02-09T09:43:37.695Z,30.10
2023-02-09T09:46:06.765Z,29.38
2023-02-09T09:48:42.143Z,29.89
2023-02-09T09:51:13.183Z,30.13
2023-02-09T09:53:41.482Z,29.95
2023-02-09T09:56:10.383Z,30.10
2023-02-09T09:58:41.295Z,30.17
2023-02-09T10:01:13.630Z,30.24
2023-02-09T10:03:43.358Z,29.39
2023-02-09T10:06:15.305Z,29.79
2023-02-09T10:08:44.586Z,29.38
2023-02-09T10:11:13.352Z,30.12
2023-02-09T10:13:44.381Z,29.67
2023-02-09T10:16:18.463Z,29.96
2023-02-09T10:18:51.121Z,30.31
2023-02-09T10:21:19.459Z,29.72
2023-02-09T10:23:48.829Z,30.11
2023-02-09T10:26:23.110Z,30.56
2023-02-09T10:28:52.559Z,29.97
2023-02-09T10:31:25.310Z,30.01
2023-02-09T10:33:57.554Z,30.39
2023-02-09T10:36:28.291Z,30.94
2023-02-09T10:39:11.577Z,30.57
2023-02-09T10:41:40.882Z,30.82
2023-02-09T10:44:09.852Z,30.25
2023-02-09T10:46:38.936Z,30.96
2023-02-09T10:49:29.424Z,30.29
2023-02-09T10:52:17.293Z,30.76
2023-02-09T10:54:46.191Z,30.18
2023-02-09T10:57:25.152Z,30.59
2023-02-09T10:59:54.240Z,31.13
2023-02-09T11:02:38.868Z,30.96
2023-02-09T11:05:27.547Z,30.95
2023-02-09T11:07:57.869Z,30.69
2023-02-09T11:10:26.173Z,30.64
2023-02-09T11:12:54.419Z,30.69
2023-02-09T11:15:24.727Z,30.54
2023-02-09T11:17:54.946Z,30.93
2023-02-09T11:20:37.353Z,30.67
2023-02-09T11:23:21.560Z,30.92
2023-02-09T11:25:51.600Z,30.95
2023-02-09T11:28:47.105Z,30.59
2023-02-09T11:31:22.650Z,31.41
2023-02-09T11:33:54.821Z,31.27
2023-02-09T11:36:33.786Z,30.66
2023-02-09T11:39:03.106Z,30.86
2023-02-09T11:41:50.024Z,30.92
2023-02-09T11:44:23.491Z,30.85
2023-02-09T11:46:52.354Z,31.08
2023-02-09T11:49:21.223Z,30.83
2023-02-09T11:51:50.837Z,30.85
2023-02-09T11:54:19.957Z,30.98
2023-02-09T11:56:49.644Z,30.97
2023-02-09T11:59:20.041Z,30.97
2023-02-09T12:01:50.043Z,31.35
2023-02-09T12:04:20.041Z,30.88
2023-02-09T12:06:51.456Z,31.35
2023-02-09T12:09:32.868Z,31.74
2023-02-09T12:12:11.636Z,31.33
2023-02-09T12:14:49.748Z,31.74
2023-02-09T12:17:19.464Z,31.00
2023-02-09T12:19:55.091Z,31.14
2023-02-09T12:22:46.428Z,31.40
2023-02-09T12:25:19.204Z,31.18
2023-02-09T12:28:05.959Z,30.82
2023-02-09T12:31:05.729Z,31.46
2023-02-09T12:33:35.535Z,31.20
2023-02-09T12:36:05.460Z,30.72
2023-02-09T12:38:55.443Z,31.14
2023-02-09T12:41:25.321Z,31.01
2023-02-09T12:43:55.177Z,31.48
2023-02-09T12:46:25.083Z,31.42
2023-02-09T12:49:03.357Z,31.01
2023-02-09T12:52:24.997Z,30.68
2023-02-09T12:54:55.511Z,31.44
2023-02-09T12:57:54.062Z,30.80
2023-02-09T13:00:55.560Z,30.82
2023-02-09T13:03:24.642Z,30.86
2023-02-09T13:05:52.745Z,31.50
2023-02-09T13:08:25.170Z,31.42
2023-02-09T13:10:57.672Z,31.02
2023-02-09T13:13:30.079Z,30.88
2023-02-09T13:16:32.351Z,31.45
2023-02-09T13:19:03.804Z,30.99
2023-02-09T13:21:35.876Z,30.68
2023-02-09T13:24:04.981Z,31.19
2023-02-09T13:26:35.040Z,30.75
2023-02-09T13:29:19.882Z,30.87
2023-02-09T13:31:55.684Z,31.06
2023-02-09T13:34:31.984Z,31.09
2023-02-09T13:37:05.623Z,31.46
2023-02-09T13:39:36.379Z,31.46
2023-02-09T13:42:17.295Z,31.33
2023-02-09T13:44:45.706Z,31.12
2023-02-09T13:47:14.816Z,30.82
2023-02-09T13:49:43.009Z,30.93
2023-02-09T13:52:15.236Z,31.14
2023-02-09T13:54:43.672Z,31.20
2023-02-09T13:57:18.929Z,30.62
2023-02-09T13:59:47.067Z,30.76
2023-02-09T14:02:18.456Z,31.34
2023-02-09T14:04:46.778Z,31.28
2023-02-09T14:07:14.799Z,30.84
2023-02-09T14:09:45.098Z,31.10
2023-02-09T14:12:15.374Z,31.06
2023-02-09T14:15:01.761Z,30.48
2023-02-09T14:17:30.746Z,30.91
2023-02-09T14:19:59.474Z,31.16
2023-02-09T14:22:31.304Z,31.05
2023-02-09T14:24:59.382Z,30.33
2023-02-09T14:27:29.294Z,30.17
2023-02-09T14:29:57.380Z,30.46
2023-02-09T14:32:35.447Z,30.10
2023-02-09T14:35:11.604Z,30.85
2023-02-09T14:37:45.386Z,30.55
2023-02-09T14:40:21.207Z,30.29
2023-02-09T14:43:22.246Z,30.31
2023-02-09T14:45:58.606Z,30.81
2023-02-09T14:48:27.344Z,30.63
2023-02-09T14:50:56.256Z,30.66
2023-02-09T14:53:25.044Z,30.66
2023-02-09T14:55:53.531Z,30.82
2023-02-09T14:58:24.044Z,30.91
2023-02-09T15:00:52.884Z,30.76
2023-02-09T15:03:21.130Z,30.57
2023-02-09T15:05:49.550Z,30.61
2023-02-09T15:08:20.092Z,30.74
2023-02-09T15:10:48.893Z,30.66
2023-02-09T15:13:17.059Z,31.21
2023-02-09T15:15:46.932Z,30.77
2023-02-09T15:18:18.508Z,31.37
2023-02-09T15:20:46.733Z,31.25
2023-02-09T15:23:14.922Z,30.96
2023-02-09T15:25:43.400Z,31.06
2023-02-09T15:28:15.931Z,30.91
2023-02-09T15:30:44.379Z,31.18
2023-02-09T15:33:14.658Z,31.54
2023-02-09T15:35:42.848Z,31.48
2023-02-09T15:38:11.149Z,31.65
2023-02-09T15:40:59.168Z,31.26
2023-02-09T15:43:44.619Z,30.80
2023-02-09T15:46:30.183Z,31.10
2023-02-09T15:48:59.881Z,31.38
2023-02-09T15:51:31.355Z,30.33
2023-02-09T15:54:00.743Z,31.22
2023-02-09T15:56:29.024Z,30.84
2023-02-09T15:59:03.632Z,30.65
2023-02-09T16:01:34.129Z,30.73
2023-02-09T16:04:14.466Z,31.41
2023-02-09T16:06:45.146Z,31.23
2023-02-09T16:09:13.983Z,31.27
2023-02-09T16:11:42.175Z,30.12
2023-02-09T16:14:14.601Z,30.23
2023-02-09T16:16:44.303Z,30.71
2023-02-09T16:19:13.993Z,31.18
2023-02-09T16:21:43.640Z,31.07
2023-02-09T16:24:17.845Z,30.72
2023-02-09T16:26:46.042Z,30.53
2023-02-09T16:29:14.420Z,30.83
2023-02-09T16:31:42.628Z,31.02
2023-02-09T16:34:15.273Z,31.18
2023-02-09T16:36:47.108Z,30.50
2023-02-09T16:39:18.397Z,30.67
2023-02-09T16:41:50.765Z,30.16
2023-02-09T16:44:21.043Z,30.21
2023-02-09T16:46:50.767Z,30.31
2023-02-09T16:49:28.804Z,30.52
2023-02-09T16:51:59.132Z,30.08
2023-02-09T16:54:27.361Z,30.79
2023-02-09T16:56:56.603Z,30.75
2023-02-09T16:59:24.681Z,30.72
2023-02-09T17:01:52.861Z,30.52
2023-02-09T17:04:20.997Z,30.61
2023-02-09T17:06:49.197Z,30.50
2023-02-09T17:09:18.907Z,31.40
2023-02-09T17:11:47.357Z,30.72
2023-02-09T17:14:15.511Z,30.92
2023-02-09T17:16:44.872Z,30.66
2023-02-09T17:19:15.990Z,30.76
2023-02-09T17:21:44.311Z,30.92
2023-02-09T17:24:14.014Z,31.04
2023-02-09T17:26:43.648Z,31.00
2023-02-09T17:29:12.058Z,30.37
2023-02-09T17:31:52.345Z,30.93
2023-02-09T17:34:27.114Z,30.20
2023-02-09T17:36:55.471Z,30.70
2023-02-09T17:39:23.616Z,30.69
2023-02-09T17:41:53.420Z,30.85
2023-02-09T17:44:43.375Z,31.03
2023-02-09T17:47:10.818Z,30.72
2023-02-09T17:49:38.953Z,31.18
2023-02-09T17:52:07.169Z,31.19
2023-02-09T17:54:35.329Z,30.86
2023-02-09T17:57:05.667Z,30.39
2023-02-09T17:59:33.864Z,30.75
2023-02-09T18:02:01.889Z,31.26
2023-02-09T18:04:31.836Z,31.07
2023-02-09T18:07:00.027Z,30.98
2023-02-09T18:09:28.230Z,31.37
2023-02-09T18:11:59.845Z,30.64
2023-02-09T18:14:30.465Z,30.46
2023-02-09T18:16:58.736Z,30.90
2023-02-09T18:19:27.230Z,30.91
2023-02-09T18:21:56.700Z,30.43
2023-02-09T18:24:25.555Z,30.43
2023-02-09T18:26:53.705Z,30.44
2023-02-09T18:29:23.345Z,30.80
2023-02-09T18:31:53.041Z,30.62
2023-02-09T18:34:21.294Z,30.64
2023-02-09T18:36:49.541Z,30.33
2023-02-09T18:39:17.794Z,30.53
2023-02-09T18:41:48.476Z,30.35
2023-02-09T18:44:16.764Z,31.00
2023-02-09T18:46:45.417Z,30.37
2023-02-09T18:49:15.101Z,30.07
2023-02-09T18:51:43.350Z,30.40
2023-02-09T18:54:11.612Z,30.72
2023-02-09T18:56:39.825Z,30.49
2023-02-09T18:59:08.771Z,31.01
2023-02-09T19:01:38.028Z,31.05
2023-02-09T19:04:06.427Z,30.39
2023-02-09T19:06:36.154Z,30.62
2023-02-09T19:09:05.092Z,30.47
2023-02-09T19:11:33.299Z,31.04
2023-02-09T19:14:18.988Z,31.00
2023-02-09T19:16:47.230Z,30.43
2023-02-09T19:19:16.291Z,31.17
2023-02-09T19:21:47.699Z,30.61
2023-02-09T19:24:15.932Z,31.06
2023-02-09T19:26:44.017Z,30.69
2023-02-09T19:29:12.226Z,31.00
2023-02-09T19:31:40.402Z,30.61
2023-02-09T19:34:08.796Z,30.61
2023-02-09T19:36:37.052Z,31.07
2023-02-09T19:39:06.782Z,30.49
2023-02-09T19:41:35.024Z,30.48
2023-02-09T19:44:04.447Z,30.47
2023-02-09T19:46:33.023Z,30.96
2023-02-09T19:49:02.196Z,31.20
2023-02-09T19:51:30.600Z,30.52
2023-02-09T19:53:58.766Z,30.80
2023-02-09T19:56:28.378Z,30.50
2023-02-09T19:58:56.539Z,30.64
2023-02-09T20:01:26.913Z,30.88
2023-02-09T20:03:55.214Z,31.19
2023-02-09T20:06:23.512Z,30.63
2023-02-09T20:08:52.055Z,31.13
2023-02-09T20:11:21.397Z,30.74
2023-02-09T20:13:52.734Z,30.55
2023-02-09T20:16:23.466Z,30.41
2023-02-09T20:18:51.940Z,30.79
2023-02-09T20:21:21.398Z,30.74
2023-02-09T20:23:49.631Z,30.92
2023-02-09T20:26:18.587Z,30.63
2023-02-09T20:28:46.889Z,31.15
2023-02-09T20:31:19.325Z,31.08
2023-02-09T20:33:47.785Z,31.09
2023-02-09T20:36:16.534Z,30.94
2023-02-09T20:38:44.777Z,30.61
2023-02-09T20:41:14.076Z,30.51
2023-02-09T20:43:59.449Z,30.32
2023-02-09T20:46:52.639Z,31.18
2023-02-09T20:49:21.014Z,30.49
2023-02-09T20:51:49.108Z,30.67
2023-02-09T20:54:17.445Z,30.53
2023-02-09T20:56:45.858Z,30.31
2023-02-09T20:59:14.599Z,30.39
2023-02-09T21:01:45.112Z,30.85
2023-02-09T21:04:13.360Z,30.40
2023-02-09T21:06:41.519Z,30.31
2023-02-09T21:09:10.260Z,30.77
2023-02-09T21:11:38.608Z,30.74
2023-02-09T21:14:06.894Z,30.46
2023-02-09T21:16:36.697Z,30.85
2023-02-09T21:19:06.366Z,30.86
2023-02-09T21:21:34.509Z,30.62
2023-02-09T21:24:02.755Z,30.67
2023-02-09T21:26:30.982Z,30.75
2023-02-09T21:28:59.265Z,30.07
2023-02-09T21:31:28.163Z,30.13
2023-02-09T21:33:56.468Z,30.73
2023-02-09T21:36:26.071Z,30.26
2023-02-09T21:38:54.289Z,30.10
2023-02-09T21:41:40.994Z,30.79
2023-02-09T21:44:10.183Z,30.52
2023-02-09T21:46:38.382Z,30.64
2023-02-09T21:49:06.588Z,30.43
2023-02-09T21:51:36.256Z,30.71
2023-02-09T21:54:04.492Z,30.78
2023-02-09T21:56:32.679Z,30.64
2023-02-09T21:59:00.940Z,30.70
2023-02-09T22:01:30.643Z,30.09
2023-02-09T22:03:58.874Z,30.40
2023-02-09T22:06:27.122Z,30.64
2023-02-09T22:08:56.786Z,30.59
2023-02-09T22:11:24.985Z,30.56
2023-02-09T22:13:53.228Z,30.50
2023-02-09T22:16:22.640Z,30.58
2023-02-09T22:18:50.876Z,30.66
2023-02-09T22:21:19.230Z,30.23
2023-02-09T22:23:47.771Z,29.97
2023-02-09T22:26:17.344Z,30.13
2023-02-09T22:28:46.738Z,30.65
2023-02-09T22:31:15.993Z,30.49
2023-02-09T22:33:44.150Z,30.41
2023-02-09T22:36:13.390Z,30.57
2023-02-09T22:38:41.856Z,30.12
2023-02-09T22:41:21.482Z,30.33
2023-02-09T22:43:52.460Z,30.59
2023-02-09T22:46:20.795Z,30.48
2023-02-09T22:48:52.528Z,30.49
2023-02-09T22:51:21.132Z,29.93
2023-02-09T22:53:49.271Z,30.32
2023-02-09T22:56:17.618Z,30.35
2023-02-09T22:58:45.795Z,30.43
2023-02-09T23:01:15.645Z,29.94
2023-02-09T23:03:43.987Z,30.70
2023-02-09T23:06:16.088Z,30.69
2023-02-09T23:08:44.585Z,30.60
2023-02-09T23:11:13.558Z,30.62
2023-02-09T23:13:42.018Z,30.25
2023-02-09T23:16:11.001Z,30.81
2023-02-09T23:18:40.880Z,30.47
2023-02-09T23:21:09.378Z,30.46
2023-02-09T23:23:37.511Z,30.39
2023-02-09T23:26:05.732Z,30.45
2023-02-09T23:28:33.940Z,29.91
2023-02-09T23:31:04.984Z,30.64
2023-02-09T23:33:33.276Z,30.40
2023-02-09T23:36:05.615Z,30.01
2023-02-09T23:38:34.011Z,30.34
2023-02-09T23:41:06.727Z,29.85
2023-02-09T23:43:34.949Z,29.85
2023-02-09T23:46:03.126Z,30.50
2023-02-09T23:48:31.420Z,30.42
2023-02-09T23:51:00.955Z,30.58
2023-02-09T23:53:30.682Z,30.08
2023-02-09T23:56:03.792Z,30.10
2023-02-09T23:58:32.393Z,30.38
